sensor_id;sensor_type;location;lat;lon;timestamp;temperature;humidity
46652;DHT22;32377;52.182;5.398;2023-04-22T00:00:05;8.80;99.90
46652;DHT22;32377;52.182;5.398;2023-04-22T00:02:33;8.80;99.90
46652;DHT22;32377;52.182;5.398;2023-04-22T00:05:01;8.80;99.90
46652;DHT22;32377;52.182;5.398;2023-04-22T00:07:27;8.70;99.90
46652;DHT22;32377;52.182;5.398;2023-04-22T00:09:53;8.70;99.90
46652;DHT22;32377;52.182;5.398;2023-04-22T00:12:19;8.70;99.90
46652;DHT22;32377;52.182;5.398;2023-04-22T00:14:44;8.70;99.90
46652;DHT22;32377;52.182;5.398;2023-04-22T00:17:10;8.60;99.90
46652;DHT22;32377;52.182;5.398;2023-04-22T00:19:36;8.60;99.90
46652;DHT22;32377;52.182;5.398;2023-04-22T00:22:02;8.50;99.90
46652;DHT22;32377;52.182;5.398;2023-04-22T00:24:28;8.50;99.90
46652;DHT22;32377;52.182;5.398;2023-04-22T00:26:54;8.50;99.90
46652;DHT22;32377;52.182;5.398;2023-04-22T00:29:20;8.40;99.90
46652;DHT22;32377;52.182;5.398;2023-04-22T00:31:45;8.40;99.90
46652;DHT22;32377;52.182;5.398;2023-04-22T00:34:11;8.40;99.90
46652;DHT22;32377;52.182;5.398;2023-04-22T00:36:36;8.40;99.90
46652;DHT22;32377;52.182;5.398;2023-04-22T00:39:02;8.30;99.90
46652;DHT22;32377;52.182;5.398;2023-04-22T00:41:28;8.30;99.90
46652;DHT22;32377;52.182;5.398;2023-04-22T00:43:55;8.30;99.90
46652;DHT22;32377;52.182;5.398;2023-04-22T00:46:21;8.30;99.90
46652;DHT22;32377;52.182;5.398;2023-04-22T00:48:47;8.20;99.90
46652;DHT22;32377;52.182;5.398;2023-04-22T00:51:13;8.10;99.90
46652;DHT22;32377;52.182;5.398;2023-04-22T00:53:39;8.10;99.90
46652;DHT22;32377;52.182;5.398;2023-04-22T00:56:05;8.20;99.90
46652;DHT22;32377;52.182;5.398;2023-04-22T00:58:30;8.20;99.90
46652;DHT22;32377;52.182;5.398;2023-04-22T01:00:57;8.10;99.90
46652;DHT22;32377;52.182;5.398;2023-04-22T01:03:23;8.10;99.90
46652;DHT22;32377;52.182;5.398;2023-04-22T01:05:51;8.10;99.90
46652;DHT22;32377;52.182;5.398;2023-04-22T01:08:16;8.10;99.90
46652;DHT22;32377;52.182;5.398;2023-04-22T01:10:42;8.10;99.90
46652;DHT22;32377;52.182;5.398;2023-04-22T01:13:08;8.10;99.90
46652;DHT22;32377;52.182;5.398;2023-04-22T01:15:34;8.10;99.90
46652;DHT22;32377;52.182;5.398;2023-04-22T01:18:00;8.10;99.90
46652;DHT22;32377;52.182;5.398;2023-04-22T01:20:27;8.10;99.90
46652;DHT22;32377;52.182;5.398;2023-04-22T01:22:55;8.00;99.90
46652;DHT22;32377;52.182;5.398;2023-04-22T01:25:24;8.00;99.90
46652;DHT22;32377;52.182;5.398;2023-04-22T01:27:50;8.00;99.90
46652;DHT22;32377;52.182;5.398;2023-04-22T01:30:17;8.00;99.90
46652;DHT22;32377;52.182;5.398;2023-04-22T01:32:42;8.00;99.90
46652;DHT22;32377;52.182;5.398;2023-04-22T01:35:09;8.00;99.90
46652;DHT22;32377;52.182;5.398;2023-04-22T01:37:35;8.00;99.90
46652;DHT22;32377;52.182;5.398;2023-04-22T01:40:01;8.00;99.90
46652;DHT22;32377;52.182;5.398;2023-04-22T01:42:27;8.00;99.90
46652;DHT22;32377;52.182;5.398;2023-04-22T01:44:53;7.90;99.90
46652;DHT22;32377;52.182;5.398;2023-04-22T01:47:18;7.90;99.90
46652;DHT22;32377;52.182;5.398;2023-04-22T01:49:44;7.90;99.90
46652;DHT22;32377;52.182;5.398;2023-04-22T01:52:10;7.90;99.90
46652;DHT22;32377;52.182;5.398;2023-04-22T01:54:35;7.90;99.90
46652;DHT22;32377;52.182;5.398;2023-04-22T01:57:07;7.90;99.90
46652;DHT22;32377;52.182;5.398;2023-04-22T01:59:33;7.80;99.90
46652;DHT22;32377;52.182;5.398;2023-04-22T02:01:58;7.80;99.90
46652;DHT22;32377;52.182;5.398;2023-04-22T02:04:24;7.80;99.90
46652;DHT22;32377;52.182;5.398;2023-04-22T02:06:49;7.70;99.90
46652;DHT22;32377;52.182;5.398;2023-04-22T02:09:15;7.70;99.90
46652;DHT22;32377;52.182;5.398;2023-04-22T02:11:40;7.70;99.90
46652;DHT22;32377;52.182;5.398;2023-04-22T02:14:06;7.70;99.90
46652;DHT22;32377;52.182;5.398;2023-04-22T02:16:31;7.60;99.90
46652;DHT22;32377;52.182;5.398;2023-04-22T02:18:57;7.60;99.90
46652;DHT22;32377;52.182;5.398;2023-04-22T02:21:23;7.60;99.90
46652;DHT22;32377;52.182;5.398;2023-04-22T02:23:48;7.50;99.90
46652;DHT22;32377;52.182;5.398;2023-04-22T02:26:14;7.50;99.90
46652;DHT22;32377;52.182;5.398;2023-04-22T02:28:39;7.50;99.90
46652;DHT22;32377;52.182;5.398;2023-04-22T02:31:06;7.40;99.90
46652;DHT22;32377;52.182;5.398;2023-04-22T02:33:31;7.40;99.90
46652;DHT22;32377;52.182;5.398;2023-04-22T02:35:57;7.40;99.90
46652;DHT22;32377;52.182;5.398;2023-04-22T02:38:23;7.30;99.90
46652;DHT22;32377;52.182;5.398;2023-04-22T02:40:48;7.30;99.90
46652;DHT22;32377;52.182;5.398;2023-04-22T02:43:14;7.30;99.90
46652;DHT22;32377;52.182;5.398;2023-04-22T02:45:39;7.30;99.90
46652;DHT22;32377;52.182;5.398;2023-04-22T02:48:05;7.30;99.90
46652;DHT22;32377;52.182;5.398;2023-04-22T02:50:30;7.30;99.90
46652;DHT22;32377;52.182;5.398;2023-04-22T02:52:56;7.30;99.90
46652;DHT22;32377;52.182;5.398;2023-04-22T02:55:23;7.20;99.90
46652;DHT22;32377;52.182;5.398;2023-04-22T02:57:49;7.20;99.90
46652;DHT22;32377;52.182;5.398;2023-04-22T03:00:15;7.20;99.90
46652;DHT22;32377;52.182;5.398;2023-04-22T03:02:40;7.20;99.90
46652;DHT22;32377;52.182;5.398;2023-04-22T03:05:06;7.20;99.90
46652;DHT22;32377;52.182;5.398;2023-04-22T03:07:32;7.20;99.90
46652;DHT22;32377;52.182;5.398;2023-04-22T03:09:57;7.20;99.90
46652;DHT22;32377;52.182;5.398;2023-04-22T03:12:24;7.20;99.90
46652;DHT22;32377;52.182;5.398;2023-04-22T03:14:49;7.20;99.90
46652;DHT22;32377;52.182;5.398;2023-04-22T03:17:15;7.20;99.90
46652;DHT22;32377;52.182;5.398;2023-04-22T03:19:41;7.20;99.90
46652;DHT22;32377;52.182;5.398;2023-04-22T03:22:06;7.10;99.90
46652;DHT22;32377;52.182;5.398;2023-04-22T03:24:32;7.10;99.90
46652;DHT22;32377;52.182;5.398;2023-04-22T03:26:57;7.10;99.90
46652;DHT22;32377;52.182;5.398;2023-04-22T03:29:23;7.20;99.90
46652;DHT22;32377;52.182;5.398;2023-04-22T03:31:48;7.10;99.90
46652;DHT22;32377;52.182;5.398;2023-04-22T03:34:14;7.10;99.90
46652;DHT22;32377;52.182;5.398;2023-04-22T03:36:39;7.20;99.90
46652;DHT22;32377;52.182;5.398;2023-04-22T03:39:05;7.20;99.90
46652;DHT22;32377;52.182;5.398;2023-04-22T03:41:31;7.20;99.90
46652;DHT22;32377;52.182;5.398;2023-04-22T03:43:56;7.20;99.90
46652;DHT22;32377;52.182;5.398;2023-04-22T03:46:22;7.20;99.90
46652;DHT22;32377;52.182;5.398;2023-04-22T03:48:47;7.20;99.90
46652;DHT22;32377;52.182;5.398;2023-04-22T03:51:13;7.20;99.90
46652;DHT22;32377;52.182;5.398;2023-04-22T03:53:39;7.30;99.90
46652;DHT22;32377;52.182;5.398;2023-04-22T03:59:19;7.30;99.90
46652;DHT22;32377;52.182;5.398;2023-04-22T04:01:45;7.30;99.90
46652;DHT22;32377;52.182;5.398;2023-04-22T04:04:11;7.40;99.90
46652;DHT22;32377;52.182;5.398;2023-04-22T04:06:37;7.40;99.90
46652;DHT22;32377;52.182;5.398;2023-04-22T04:09:03;7.40;99.90
46652;DHT22;32377;52.182;5.398;2023-04-22T04:11:30;7.40;99.90
46652;DHT22;32377;52.182;5.398;2023-04-22T04:13:55;7.40;99.90
46652;DHT22;32377;52.182;5.398;2023-04-22T04:16:21;7.50;99.90
46652;DHT22;32377;52.182;5.398;2023-04-22T04:18:50;7.50;99.90
46652;DHT22;32377;52.182;5.398;2023-04-22T04:21:16;7.50;99.90
46652;DHT22;32377;52.182;5.398;2023-04-22T04:23:42;7.50;99.90
46652;DHT22;32377;52.182;5.398;2023-04-22T04:26:08;7.50;99.90
46652;DHT22;32377;52.182;5.398;2023-04-22T04:28:33;7.50;99.90
46652;DHT22;32377;52.182;5.398;2023-04-22T04:31:00;7.50;99.90
46652;DHT22;32377;52.182;5.398;2023-04-22T04:33:28;7.50;99.90
46652;DHT22;32377;52.182;5.398;2023-04-22T04:35:54;7.50;99.90
46652;DHT22;32377;52.182;5.398;2023-04-22T04:38:19;7.50;99.90
46652;DHT22;32377;52.182;5.398;2023-04-22T04:40:47;7.50;99.90
46652;DHT22;32377;52.182;5.398;2023-04-22T04:43:14;7.50;99.90
46652;DHT22;32377;52.182;5.398;2023-04-22T04:45:40;7.60;99.90
46652;DHT22;32377;52.182;5.398;2023-04-22T04:48:13;7.60;99.90
46652;DHT22;32377;52.182;5.398;2023-04-22T04:50:42;7.60;99.90
46652;DHT22;32377;52.182;5.398;2023-04-22T04:53:09;7.70;99.90
46652;DHT22;32377;52.182;5.398;2023-04-22T04:55:35;7.70;99.90
46652;DHT22;32377;52.182;5.398;2023-04-22T04:58:01;7.70;99.90
46652;DHT22;32377;52.182;5.398;2023-04-22T05:00:27;7.70;99.90
46652;DHT22;32377;52.182;5.398;2023-04-22T05:02:52;7.70;99.90
46652;DHT22;32377;52.182;5.398;2023-04-22T05:05:18;7.70;99.90
46652;DHT22;32377;52.182;5.398;2023-04-22T05:07:43;7.80;99.90
46652;DHT22;32377;52.182;5.398;2023-04-22T05:10:10;7.90;99.90
46652;DHT22;32377;52.182;5.398;2023-04-22T05:12:35;7.90;99.90
46652;DHT22;32377;52.182;5.398;2023-04-22T05:15:01;7.90;99.90
46652;DHT22;32377;52.182;5.398;2023-04-22T05:17:27;7.90;99.90
46652;DHT22;32377;52.182;5.398;2023-04-22T05:19:53;7.90;99.90
46652;DHT22;32377;52.182;5.398;2023-04-22T05:22:18;8.00;99.90
46652;DHT22;32377;52.182;5.398;2023-04-22T05:24:44;8.00;99.90
46652;DHT22;32377;52.182;5.398;2023-04-22T05:27:10;8.00;99.90
46652;DHT22;32377;52.182;5.398;2023-04-22T05:29:35;8.00;99.90
46652;DHT22;32377;52.182;5.398;2023-04-22T05:32:01;8.10;99.90
46652;DHT22;32377;52.182;5.398;2023-04-22T05:34:27;8.10;99.90
46652;DHT22;32377;52.182;5.398;2023-04-22T05:36:52;8.10;99.90
46652;DHT22;32377;52.182;5.398;2023-04-22T05:39:18;8.10;99.90
46652;DHT22;32377;52.182;5.398;2023-04-22T05:41:44;8.20;99.90
46652;DHT22;32377;52.182;5.398;2023-04-22T05:44:10;8.30;99.90
46652;DHT22;32377;52.182;5.398;2023-04-22T05:46:35;8.30;99.90
46652;DHT22;32377;52.182;5.398;2023-04-22T05:49:01;8.30;99.90
46652;DHT22;32377;52.182;5.398;2023-04-22T05:51:26;8.30;99.90
46652;DHT22;32377;52.182;5.398;2023-04-22T05:53:52;8.40;99.90
46652;DHT22;32377;52.182;5.398;2023-04-22T05:56:18;8.50;99.90
46652;DHT22;32377;52.182;5.398;2023-04-22T05:58:45;8.50;99.90
46652;DHT22;32377;52.182;5.398;2023-04-22T06:01:11;8.50;99.90
46652;DHT22;32377;52.182;5.398;2023-04-22T06:03:36;8.50;99.90
46652;DHT22;32377;52.182;5.398;2023-04-22T06:06:02;8.50;99.90
46652;DHT22;32377;52.182;5.398;2023-04-22T06:08:29;8.60;99.90
46652;DHT22;32377;52.182;5.398;2023-04-22T06:10:55;8.70;99.90
46652;DHT22;32377;52.182;5.398;2023-04-22T06:13:21;8.80;99.90
46652;DHT22;32377;52.182;5.398;2023-04-22T06:15:46;8.80;99.90
46652;DHT22;32377;52.182;5.398;2023-04-22T06:18:12;8.80;99.90
46652;DHT22;32377;52.182;5.398;2023-04-22T06:20:38;8.90;99.90
46652;DHT22;32377;52.182;5.398;2023-04-22T06:23:03;9.00;99.90
46652;DHT22;32377;52.182;5.398;2023-04-22T06:25:30;9.10;99.90
46652;DHT22;32377;52.182;5.398;2023-04-22T06:27:57;9.10;99.90
46652;DHT22;32377;52.182;5.398;2023-04-22T06:30:23;9.10;99.90
46652;DHT22;32377;52.182;5.398;2023-04-22T06:32:49;9.20;99.90
46652;DHT22;32377;52.182;5.398;2023-04-22T06:35:15;9.30;99.90
46652;DHT22;32377;52.182;5.398;2023-04-22T06:37:41;9.40;99.90
46652;DHT22;32377;52.182;5.398;2023-04-22T06:40:07;9.50;99.90
46652;DHT22;32377;52.182;5.398;2023-04-22T06:42:33;9.60;99.90
46652;DHT22;32377;52.182;5.398;2023-04-22T06:44:58;9.70;99.90
46652;DHT22;32377;52.182;5.398;2023-04-22T06:47:24;9.70;99.90
46652;DHT22;32377;52.182;5.398;2023-04-22T06:49:50;9.80;99.90
46652;DHT22;32377;52.182;5.398;2023-04-22T06:52:15;9.80;99.90
46652;DHT22;32377;52.182;5.398;2023-04-22T06:54:41;9.90;99.90
46652;DHT22;32377;52.182;5.398;2023-04-22T06:57:06;10.00;99.90
46652;DHT22;32377;52.182;5.398;2023-04-22T06:59:32;10.10;99.90
46652;DHT22;32377;52.182;5.398;2023-04-22T07:01:58;10.20;99.90
46652;DHT22;32377;52.182;5.398;2023-04-22T07:04:23;10.20;99.90
46652;DHT22;32377;52.182;5.398;2023-04-22T07:06:49;10.30;99.90
46652;DHT22;32377;52.182;5.398;2023-04-22T07:09:15;10.30;99.90
46652;DHT22;32377;52.182;5.398;2023-04-22T07:11:40;10.50;99.90
46652;DHT22;32377;52.182;5.398;2023-04-22T07:14:06;10.60;99.90
46652;DHT22;32377;52.182;5.398;2023-04-22T07:16:31;10.60;99.90
46652;DHT22;32377;52.182;5.398;2023-04-22T07:18:57;10.60;99.90
46652;DHT22;32377;52.182;5.398;2023-04-22T07:21:23;10.70;99.90
46652;DHT22;32377;52.182;5.398;2023-04-22T07:23:49;10.80;99.90
46652;DHT22;32377;52.182;5.398;2023-04-22T07:26:14;11.10;99.90
46652;DHT22;32377;52.182;5.398;2023-04-22T07:28:40;11.40;99.90
46652;DHT22;32377;52.182;5.398;2023-04-22T07:31:06;11.50;99.90
46652;DHT22;32377;52.182;5.398;2023-04-22T07:33:31;11.50;99.90
46652;DHT22;32377;52.182;5.398;2023-04-22T07:35:57;11.50;99.90
46652;DHT22;32377;52.182;5.398;2023-04-22T07:38:23;11.40;99.90
46652;DHT22;32377;52.182;5.398;2023-04-22T07:40:48;11.40;99.90
46652;DHT22;32377;52.182;5.398;2023-04-22T07:43:14;11.50;99.90
46652;DHT22;32377;52.182;5.398;2023-04-22T07:45:40;11.60;99.90
46652;DHT22;32377;52.182;5.398;2023-04-22T07:48:05;11.80;99.90
46652;DHT22;32377;52.182;5.398;2023-04-22T07:50:31;12.00;99.90
46652;DHT22;32377;52.182;5.398;2023-04-22T07:52:56;12.00;99.90
46652;DHT22;32377;52.182;5.398;2023-04-22T07:55:22;12.20;99.90
46652;DHT22;32377;52.182;5.398;2023-04-22T07:57:48;12.30;99.90
46652;DHT22;32377;52.182;5.398;2023-04-22T08:00:14;12.40;99.90
46652;DHT22;32377;52.182;5.398;2023-04-22T08:02:39;12.50;99.90
46652;DHT22;32377;52.182;5.398;2023-04-22T08:05:05;12.50;99.90
46652;DHT22;32377;52.182;5.398;2023-04-22T08:07:31;12.70;99.90
46652;DHT22;32377;52.182;5.398;2023-04-22T08:09:57;12.80;99.90
46652;DHT22;32377;52.182;5.398;2023-04-22T08:12:22;12.90;99.90
46652;DHT22;32377;52.182;5.398;2023-04-22T08:14:48;12.80;99.90
46652;DHT22;32377;52.182;5.398;2023-04-22T08:17:14;12.80;99.90
46652;DHT22;32377;52.182;5.398;2023-04-22T08:19:39;12.90;99.90
46652;DHT22;32377;52.182;5.398;2023-04-22T08:22:05;12.80;99.90
46652;DHT22;32377;52.182;5.398;2023-04-22T08:24:31;12.90;99.90
46652;DHT22;32377;52.182;5.398;2023-04-22T08:26:57;13.00;99.90
46652;DHT22;32377;52.182;5.398;2023-04-22T08:29:22;13.10;99.90
46652;DHT22;32377;52.182;5.398;2023-04-22T08:31:48;13.10;99.90
46652;DHT22;32377;52.182;5.398;2023-04-22T08:34:14;13.10;99.90
46652;DHT22;32377;52.182;5.398;2023-04-22T08:36:39;13.20;99.90
46652;DHT22;32377;52.182;5.398;2023-04-22T08:39:05;13.30;99.90
46652;DHT22;32377;52.182;5.398;2023-04-22T08:41:33;13.40;99.90
46652;DHT22;32377;52.182;5.398;2023-04-22T08:43:59;13.50;99.90
46652;DHT22;32377;52.182;5.398;2023-04-22T08:46:26;13.70;99.90
46652;DHT22;32377;52.182;5.398;2023-04-22T08:48:57;13.70;99.90
46652;DHT22;32377;52.182;5.398;2023-04-22T08:51:27;13.90;99.90
46652;DHT22;32377;52.182;5.398;2023-04-22T08:53:53;14.00;99.90
46652;DHT22;32377;52.182;5.398;2023-04-22T08:56:19;14.10;99.90
46652;DHT22;32377;52.182;5.398;2023-04-22T08:58:46;14.20;99.90
46652;DHT22;32377;52.182;5.398;2023-04-22T09:01:13;14.40;99.90
46652;DHT22;32377;52.182;5.398;2023-04-22T09:03:40;14.40;99.90
46652;DHT22;32377;52.182;5.398;2023-04-22T09:06:07;14.60;99.90
46652;DHT22;32377;52.182;5.398;2023-04-22T09:08:34;14.60;99.90
46652;DHT22;32377;52.182;5.398;2023-04-22T09:11:01;14.70;99.90
46652;DHT22;32377;52.182;5.398;2023-04-22T09:13:27;14.70;99.90
46652;DHT22;32377;52.182;5.398;2023-04-22T09:15:53;14.70;99.90
46652;DHT22;32377;52.182;5.398;2023-04-22T09:18:19;14.70;99.90
46652;DHT22;32377;52.182;5.398;2023-04-22T09:20:53;14.90;99.90
46652;DHT22;32377;52.182;5.398;2023-04-22T09:23:19;15.10;99.90
46652;DHT22;32377;52.182;5.398;2023-04-22T09:25:45;15.20;99.90
46652;DHT22;32377;52.182;5.398;2023-04-22T09:28:16;15.30;99.90
46652;DHT22;32377;52.182;5.398;2023-04-22T09:30:44;15.40;99.90
46652;DHT22;32377;52.182;5.398;2023-04-22T09:33:10;15.60;99.90
46652;DHT22;32377;52.182;5.398;2023-04-22T09:35:39;15.50;99.90
46652;DHT22;32377;52.182;5.398;2023-04-22T09:38:07;15.60;99.90
46652;DHT22;32377;52.182;5.398;2023-04-22T09:40:33;15.70;99.90
46652;DHT22;32377;52.182;5.398;2023-04-22T09:43:02;15.70;99.90
46652;DHT22;32377;52.182;5.398;2023-04-22T09:45:35;15.80;99.90
46652;DHT22;32377;52.182;5.398;2023-04-22T09:48:09;15.80;99.90
46652;DHT22;32377;52.182;5.398;2023-04-22T09:50:36;15.80;99.90
46652;DHT22;32377;52.182;5.398;2023-04-22T09:53:07;16.10;99.90
46652;DHT22;32377;52.182;5.398;2023-04-22T09:55:35;16.30;99.90
46652;DHT22;32377;52.182;5.398;2023-04-22T10:01:46;16.40;99.90
46652;DHT22;32377;52.182;5.398;2023-04-22T10:04:12;16.50;99.90
46652;DHT22;32377;52.182;5.398;2023-04-22T10:06:39;16.40;99.90
46652;DHT22;32377;52.182;5.398;2023-04-22T10:09:05;16.50;99.90
46652;DHT22;32377;52.182;5.398;2023-04-22T10:11:33;16.50;99.90
46652;DHT22;32377;52.182;5.398;2023-04-22T10:13:59;16.60;99.90
46652;DHT22;32377;52.182;5.398;2023-04-22T10:16:30;16.60;99.90
46652;DHT22;32377;52.182;5.398;2023-04-22T10:18:57;16.50;99.90
46652;DHT22;32377;52.182;5.398;2023-04-22T10:21:25;16.70;99.90
46652;DHT22;32377;52.182;5.398;2023-04-22T10:23:51;16.80;99.90
46652;DHT22;32377;52.182;5.398;2023-04-22T10:29:26;17.00;99.90
46652;DHT22;32377;52.182;5.398;2023-04-22T10:34:43;17.20;99.90
46652;DHT22;32377;52.182;5.398;2023-04-22T10:37:12;17.20;99.90
46652;DHT22;32377;52.182;5.398;2023-04-22T10:39:41;17.10;99.90
46652;DHT22;32377;52.182;5.398;2023-04-22T10:42:11;17.00;99.90
46652;DHT22;32377;52.182;5.398;2023-04-22T10:44:51;17.00;99.90
46652;DHT22;32377;52.182;5.398;2023-04-22T10:47:36;17.20;99.90
46652;DHT22;32377;52.182;5.398;2023-04-22T10:55:53;17.70;99.90
46652;DHT22;32377;52.182;5.398;2023-04-22T10:58:23;17.80;99.90
46652;DHT22;32377;52.182;5.398;2023-04-22T11:00:51;17.70;99.90
46652;DHT22;32377;52.182;5.398;2023-04-22T11:03:28;17.70;99.90
46652;DHT22;32377;52.182;5.398;2023-04-22T11:06:14;17.80;99.90
46652;DHT22;32377;52.182;5.398;2023-04-22T11:08:45;17.80;99.90
46652;DHT22;32377;52.182;5.398;2023-04-22T11:11:11;17.90;99.90
46652;DHT22;32377;52.182;5.398;2023-04-22T11:13:40;17.80;99.90
46652;DHT22;32377;52.182;5.398;2023-04-22T11:16:07;17.70;99.90
46652;DHT22;32377;52.182;5.398;2023-04-22T11:18:33;17.50;99.90
46652;DHT22;32377;52.182;5.398;2023-04-22T11:21:03;17.60;99.90
46652;DHT22;32377;52.182;5.398;2023-04-22T11:23:30;17.70;99.90
46652;DHT22;32377;52.182;5.398;2023-04-22T11:25:58;17.70;99.90
46652;DHT22;32377;52.182;5.398;2023-04-22T11:28:24;17.80;99.90
46652;DHT22;32377;52.182;5.398;2023-04-22T11:30:50;17.70;99.90
46652;DHT22;32377;52.182;5.398;2023-04-22T11:33:16;17.60;99.90
46652;DHT22;32377;52.182;5.398;2023-04-22T11:35:42;17.70;99.90
46652;DHT22;32377;52.182;5.398;2023-04-22T11:38:08;17.80;99.90
46652;DHT22;32377;52.182;5.398;2023-04-22T11:40:43;17.90;99.90
46652;DHT22;32377;52.182;5.398;2023-04-22T11:43:10;17.80;99.90
46652;DHT22;32377;52.182;5.398;2023-04-22T11:45:37;17.80;99.90
46652;DHT22;32377;52.182;5.398;2023-04-22T11:48:05;17.70;99.90
46652;DHT22;32377;52.182;5.398;2023-04-22T11:50:33;17.50;99.90
46652;DHT22;32377;52.182;5.398;2023-04-22T11:53:19;17.40;99.90
46652;DHT22;32377;52.182;5.398;2023-04-22T11:55:48;17.10;99.90
46652;DHT22;32377;52.182;5.398;2023-04-22T11:58:26;16.80;99.90
46652;DHT22;32377;52.182;5.398;2023-04-22T12:00:53;16.60;99.90
46652;DHT22;32377;52.182;5.398;2023-04-22T12:03:23;16.30;99.90
46652;DHT22;32377;52.182;5.398;2023-04-22T12:05:56;16.00;99.90
46652;DHT22;32377;52.182;5.398;2023-04-22T12:08:31;15.70;99.90
46652;DHT22;32377;52.182;5.398;2023-04-22T12:10:58;15.50;99.90
46652;DHT22;32377;52.182;5.398;2023-04-22T12:13:29;15.40;99.90
46652;DHT22;32377;52.182;5.398;2023-04-22T12:15:57;15.30;99.90
46652;DHT22;32377;52.182;5.398;2023-04-22T12:18:32;15.20;99.90
46652;DHT22;32377;52.182;5.398;2023-04-22T12:21:12;15.00;99.90
46652;DHT22;32377;52.182;5.398;2023-04-22T12:24:01;14.90;99.90
46652;DHT22;32377;52.182;5.398;2023-04-22T12:26:30;14.80;99.90
46652;DHT22;32377;52.182;5.398;2023-04-22T12:28:57;14.80;99.90
46652;DHT22;32377;52.182;5.398;2023-04-22T12:31:24;14.70;99.90
46652;DHT22;32377;52.182;5.398;2023-04-22T12:33:49;14.80;99.90
46652;DHT22;32377;52.182;5.398;2023-04-22T12:36:17;14.80;99.90
46652;DHT22;32377;52.182;5.398;2023-04-22T12:38:42;14.80;99.90
46652;DHT22;32377;52.182;5.398;2023-04-22T12:41:08;14.80;99.90
46652;DHT22;32377;52.182;5.398;2023-04-22T12:43:34;14.80;99.90
46652;DHT22;32377;52.182;5.398;2023-04-22T12:46:05;14.80;99.90
46652;DHT22;32377;52.182;5.398;2023-04-22T12:48:31;14.80;99.90
46652;DHT22;32377;52.182;5.398;2023-04-22T12:50:57;14.80;99.90
46652;DHT22;32377;52.182;5.398;2023-04-22T12:53:25;14.70;99.90
46652;DHT22;32377;52.182;5.398;2023-04-22T12:55:50;14.70;99.90
46652;DHT22;32377;52.182;5.398;2023-04-22T12:58:16;14.60;99.90
46652;DHT22;32377;52.182;5.398;2023-04-22T13:00:42;14.60;99.90
46652;DHT22;32377;52.182;5.398;2023-04-22T13:03:07;14.60;99.90
46652;DHT22;32377;52.182;5.398;2023-04-22T13:05:33;14.50;99.90
46652;DHT22;32377;52.182;5.398;2023-04-22T13:07:59;14.30;99.90
46652;DHT22;32377;52.182;5.398;2023-04-22T13:10:25;14.10;99.90
46652;DHT22;32377;52.182;5.398;2023-04-22T13:12:52;13.90;99.90
46652;DHT22;32377;52.182;5.398;2023-04-22T13:15:18;13.70;99.90
46652;DHT22;32377;52.182;5.398;2023-04-22T13:17:44;13.50;99.90
46652;DHT22;32377;52.182;5.398;2023-04-22T13:20:10;13.40;99.90
46652;DHT22;32377;52.182;5.398;2023-04-22T13:22:38;13.30;99.90
46652;DHT22;32377;52.182;5.398;2023-04-22T13:25:05;13.20;99.90
46652;DHT22;32377;52.182;5.398;2023-04-22T13:27:31;13.30;99.90
46652;DHT22;32377;52.182;5.398;2023-04-22T13:29:57;13.30;99.90
46652;DHT22;32377;52.182;5.398;2023-04-22T13:32:23;13.40;99.90
46652;DHT22;32377;52.182;5.398;2023-04-22T13:34:48;13.40;99.90
46652;DHT22;32377;52.182;5.398;2023-04-22T13:37:14;13.40;99.90
46652;DHT22;32377;52.182;5.398;2023-04-22T13:39:40;13.50;99.90
46652;DHT22;32377;52.182;5.398;2023-04-22T13:42:06;13.30;99.90
46652;DHT22;32377;52.182;5.398;2023-04-22T13:44:32;13.40;99.90
46652;DHT22;32377;52.182;5.398;2023-04-22T13:46:58;13.30;99.90
46652;DHT22;32377;52.182;5.398;2023-04-22T13:49:23;13.30;99.90
46652;DHT22;32377;52.182;5.398;2023-04-22T13:51:51;13.30;99.90
46652;DHT22;32377;52.182;5.398;2023-04-22T13:54:16;13.30;99.90
46652;DHT22;32377;52.182;5.398;2023-04-22T13:56:42;13.30;99.90
46652;DHT22;32377;52.182;5.398;2023-04-22T13:59:08;13.30;99.90
46652;DHT22;32377;52.182;5.398;2023-04-22T14:01:33;13.50;99.90
46652;DHT22;32377;52.182;5.398;2023-04-22T14:03:59;13.60;99.90
46652;DHT22;32377;52.182;5.398;2023-04-22T14:06:24;13.60;99.90
46652;DHT22;32377;52.182;5.398;2023-04-22T14:08:51;13.60;99.90
46652;DHT22;32377;52.182;5.398;2023-04-22T14:11:16;13.50;99.90
46652;DHT22;32377;52.182;5.398;2023-04-22T14:13:42;13.50;99.90
46652;DHT22;32377;52.182;5.398;2023-04-22T14:16:09;13.40;99.90
46652;DHT22;32377;52.182;5.398;2023-04-22T14:18:37;13.30;99.90
46652;DHT22;32377;52.182;5.398;2023-04-22T14:21:05;13.40;99.90
46652;DHT22;32377;52.182;5.398;2023-04-22T14:23:32;13.30;99.90
46652;DHT22;32377;52.182;5.398;2023-04-22T14:25:58;13.20;99.90
46652;DHT22;32377;52.182;5.398;2023-04-22T14:28:23;13.30;99.90
46652;DHT22;32377;52.182;5.398;2023-04-22T14:30:50;13.30;99.90
46652;DHT22;32377;52.182;5.398;2023-04-22T14:33:15;13.30;99.90
46652;DHT22;32377;52.182;5.398;2023-04-22T14:35:41;13.30;99.90
46652;DHT22;32377;52.182;5.398;2023-04-22T14:38:09;13.20;99.90
46652;DHT22;32377;52.182;5.398;2023-04-22T14:40:35;13.20;99.90
46652;DHT22;32377;52.182;5.398;2023-04-22T14:43:02;13.20;99.90
46652;DHT22;32377;52.182;5.398;2023-04-22T14:45:29;13.30;99.90
46652;DHT22;32377;52.182;5.398;2023-04-22T14:47:55;13.30;99.90
46652;DHT22;32377;52.182;5.398;2023-04-22T14:50:21;13.50;99.90
46652;DHT22;32377;52.182;5.398;2023-04-22T14:52:47;13.60;99.90
46652;DHT22;32377;52.182;5.398;2023-04-22T14:55:13;13.60;99.90
46652;DHT22;32377;52.182;5.398;2023-04-22T14:57:38;13.60;99.90
46652;DHT22;32377;52.182;5.398;2023-04-22T15:00:05;13.50;99.90
46652;DHT22;32377;52.182;5.398;2023-04-22T15:02:32;13.50;99.90
46652;DHT22;32377;52.182;5.398;2023-04-22T15:04:58;13.50;99.90
46652;DHT22;32377;52.182;5.398;2023-04-22T15:07:24;13.60;99.90
46652;DHT22;32377;52.182;5.398;2023-04-22T15:09:50;13.60;99.90
46652;DHT22;32377;52.182;5.398;2023-04-22T15:12:15;13.60;99.90
46652;DHT22;32377;52.182;5.398;2023-04-22T15:14:41;13.60;99.90
46652;DHT22;32377;52.182;5.398;2023-04-22T15:17:07;13.60;99.90
46652;DHT22;32377;52.182;5.398;2023-04-22T15:19:32;13.60;99.90
46652;DHT22;32377;52.182;5.398;2023-04-22T15:21:58;13.60;99.90
46652;DHT22;32377;52.182;5.398;2023-04-22T15:24:24;13.60;99.90
46652;DHT22;32377;52.182;5.398;2023-04-22T15:26:53;13.50;99.90
46652;DHT22;32377;52.182;5.398;2023-04-22T15:29:19;13.50;99.90
46652;DHT22;32377;52.182;5.398;2023-04-22T15:31:45;13.50;99.90
46652;DHT22;32377;52.182;5.398;2023-04-22T15:34:11;13.40;99.90
46652;DHT22;32377;52.182;5.398;2023-04-22T15:36:36;13.40;99.90
46652;DHT22;32377;52.182;5.398;2023-04-22T15:39:02;13.30;99.90
46652;DHT22;32377;52.182;5.398;2023-04-22T15:41:32;13.30;99.90
46652;DHT22;32377;52.182;5.398;2023-04-22T15:44:01;13.30;99.90
46652;DHT22;32377;52.182;5.398;2023-04-22T15:46:30;13.20;99.90
46652;DHT22;32377;52.182;5.398;2023-04-22T15:49:00;12.70;99.90
46652;DHT22;32377;52.182;5.398;2023-04-22T15:51:26;12.40;99.90